Time;durP1;ratioP1;P1;durP2;ratioP2;P2;SDS_P1;SDS_P2;PMS_P1;PMS_P2;Temp;Humidity;BMP_temperature;BMP_pressure;BME280_temperature;BME280_humidity;BME280_pressure;Samples;Min_cycle;Max_cycle;Signal;HPM_P1;HPM_P2
2023/10/06 00:01:40;;;;;;;1999.90;999.90;;;12.10;99.90;;;;;;5053946;28;20021;-78
2023/10/06 00:04:13;;;;;;;1999.90;999.90;;;12.10;99.90;;;;;;5055544;28;20418;-72
2023/10/06 00:06:42;;;;;;;1999.90;999.90;;;12.00;99.90;;;;;;5055440;28;20079;-79
2023/10/06 00:09:48;;;;;;;1999.90;999.90;;;12.00;99.90;;;;;;5055154;28;20029;-78
2023/10/06 00:12:07;;;;;;;1999.90;999.90;;;12.00;99.90;;;;;;5051242;28;20056;-79
2023/10/06 00:14:48;;;;;;;1999.90;999.90;;;12.00;99.90;;;;;;5055095;28;20107;-72
2023/10/06 00:17:15;;;;;;;1999.90;999.90;;;12.00;99.90;;;;;;5055203;28;20025;-71
2023/10/06 00:19:42;;;;;;;1999.90;999.90;;;11.90;99.90;;;;;;5055061;28;20036;-78
2023/10/06 00:22:17;;;;;;;1999.90;999.90;;;11.90;99.90;;;;;;5054762;28;20021;-78
2023/10/06 00:24:58;;;;;;;1999.90;999.90;;;12.00;99.90;;;;;;5054780;28;20033;-71
2023/10/06 00:27:29;;;;;;;1999.90;999.90;;;12.00;99.90;;;;;;5047334;28;20106;-78
2023/10/06 00:29:55;;;;;;;1999.90;999.90;;;11.90;99.90;;;;;;5043262;28;20017;-72
2023/10/06 00:32:22;;;;;;;1999.90;999.90;;;11.80;99.90;;;;;;5054851;28;20029;-72
2023/10/06 00:34:49;;;;;;;1999.90;999.90;;;11.80;99.90;;;;;;5054920;28;20017;-72
2023/10/06 00:37:16;;;;;;;1999.90;999.90;;;11.70;99.90;;;;;;5036450;28;20037;-79
2023/10/06 00:39:43;;;;;;;1999.90;999.90;;;11.60;99.90;;;;;;5052839;28;20111;-71
2023/10/06 00:42:13;;;;;;;1999.90;999.90;;;11.50;99.90;;;;;;5054669;28;20512;-71
2023/10/06 00:44:39;;;;;;;1999.90;999.90;;;11.40;99.90;;;;;;5054878;28;20056;-78
2023/10/06 00:47:10;;;;;;;1999.90;999.90;;;11.50;99.90;;;;;;5054510;28;20049;-78
2023/10/06 00:49:36;;;;;;;1999.90;999.90;;;11.40;99.90;;;;;;5042717;28;20022;-78
2023/10/06 00:52:06;;;;;;;1999.90;999.90;;;11.50;99.90;;;;;;5033800;28;20036;-79
2023/10/06 00:54:33;;;;;;;1999.90;999.90;;;11.40;99.90;;;;;;5034343;28;20100;-71
2023/10/06 00:57:08;;;;;;;1999.90;999.90;;;11.50;99.90;;;;;;5033995;28;20022;-78
2023/10/06 00:59:35;;;;;;;1999.90;999.90;;;11.40;99.90;;;;;;5035559;28;20384;-78
2023/10/06 01:02:01;;;;;;;1999.90;999.90;;;11.40;99.90;;;;;;5054667;28;20025;-79
2023/10/06 01:04:26;;;;;;;1999.90;999.90;;;11.40;99.90;;;;;;5054446;28;20086;-78
2023/10/06 01:06:55;;;;;;;1999.90;999.90;;;11.40;99.90;;;;;;5054062;28;20028;-71
2023/10/06 01:09:30;;;;;;;1999.90;999.90;;;11.30;99.90;;;;;;5054036;28;20025;-71
2023/10/06 01:11:57;;;;;;;1999.90;999.90;;;11.20;99.90;;;;;;5054104;28;20021;-78
2023/10/06 01:14:34;;;;;;;1999.90;999.90;;;11.10;99.90;;;;;;5054103;28;20517;-78
2023/10/06 01:17:18;;;;;;;1999.90;999.90;;;11.10;99.90;;;;;;5054009;28;20036;-78
2023/10/06 01:19:47;;;;;;;1999.90;999.90;;;11.10;99.90;;;;;;5054071;28;20100;-71
2023/10/06 01:22:32;;;;;;;1999.90;999.90;;;11.00;99.90;;;;;;5053576;28;20064;-71
2023/10/06 01:24:59;;;;;;;1999.90;999.90;;;11.10;99.90;;;;;;5053237;28;20049;-78
2023/10/06 01:27:28;;;;;;;1999.90;999.90;;;11.10;99.90;;;;;;5049132;28;20029;-78
2023/10/06 01:32:41;;;;;;;1999.90;999.90;;;11.00;99.90;;;;;;5052775;28;20066;-78
2023/10/06 01:35:12;;;;;;;1999.90;999.90;;;11.10;99.90;;;;;;5037245;28;20127;-81
2023/10/06 01:37:44;;;;;;;1999.90;999.90;;;11.10;99.90;;;;;;5037981;28;20523;-78
2023/10/06 01:41:01;;;;;;;1999.90;999.90;;;11.10;99.90;;;;;;5034136;28;20042;-78
2023/10/06 01:43:09;;;;;;;1999.90;999.90;;;11.20;99.90;;;;;;5025459;28;20025;-78
2023/10/06 01:45:35;;;;;;;;;;;11.10;99.90;;;;;;5034386;28;20425;-71
2023/10/06 01:50:35;;;;;;;1999.90;999.90;;;11.10;99.90;;;;;;5033527;28;20021;-78
2023/10/06 01:53:06;;;;;;;1999.90;999.90;;;11.10;99.90;;;;;;5033424;28;20040;-78
2023/10/06 01:55:39;;;;;;;1999.90;999.90;;;11.10;99.90;;;;;;5033652;28;20036;-78
2023/10/06 01:58:07;;;;;;;1999.90;999.90;;;11.00;99.90;;;;;;5033396;28;20029;-71
2023/10/06 02:00:36;;;;;;;1999.90;999.90;;;11.00;99.90;;;;;;5042619;28;20255;-72
2023/10/06 02:03:03;;;;;;;1999.90;999.90;;;10.90;99.90;;;;;;5053361;28;20391;-78
2023/10/06 02:05:29;;;;;;;1999.90;999.90;;;10.80;99.90;;;;;;5053080;28;20013;-78
2023/10/06 02:08:01;;;;;;;1999.90;999.90;;;10.80;99.90;;;;;;5053055;28;20028;-78
2023/10/06 02:10:27;;;;;;;1999.90;999.90;;;10.70;99.90;;;;;;5053196;28;20024;-72
2023/10/06 02:12:53;;;;;;;1999.90;999.90;;;10.60;99.90;;;;;;5052960;28;20044;-71
2023/10/06 02:15:18;;;;;;;1999.90;999.90;;;10.60;99.90;;;;;;5052769;28;20118;-71
2023/10/06 02:17:44;;;;;;;1999.90;999.90;;;10.60;99.90;;;;;;5053022;28;20387;-72
2023/10/06 02:22:52;;;;;;;1999.90;999.90;;;10.60;99.90;;;;;;5053410;28;20036;-78
2023/10/06 02:25:21;;;;;;;1999.90;999.90;;;10.60;99.90;;;;;;5052042;28;20056;-72
2023/10/06 02:27:47;;;;;;;1999.90;999.90;;;10.50;99.90;;;;;;5048326;28;20544;-78
2023/10/06 02:30:19;;;;;;;1999.90;999.90;;;10.50;99.90;;;;;;5048547;28;20542;-72
2023/10/06 02:32:45;;;;;;;1999.90;999.90;;;10.60;99.90;;;;;;5033105;28;20018;-78
2023/10/06 02:35:17;;;;;;;1999.90;999.90;;;10.60;99.90;;;;;;5050848;28;20025;-78
2023/10/06 02:37:45;;;;;;;1999.90;999.90;;;10.50;99.90;;;;;;5058104;28;20029;-71
2023/10/06 02:40:11;;;;;;;1999.90;999.90;;;10.60;99.90;;;;;;5045066;28;20022;-78
2023/10/06 02:42:47;;;;;;;1999.90;999.90;;;10.50;99.90;;;;;;5039522;28;20075;-78
2023/10/06 02:45:20;;;;;;;1999.90;999.90;;;10.50;99.90;;;;;;5039218;28;20022;-71
2023/10/06 02:47:49;;;;;;;1999.90;999.90;;;10.50;99.90;;;;;;5039283;28;20053;-78
2023/10/06 02:50:19;;;;;;;1999.90;999.90;;;10.50;99.90;;;;;;5039080;28;20039;-78
2023/10/06 02:52:46;;;;;;;1999.90;999.90;;;10.50;99.90;;;;;;5039477;28;20021;-78
2023/10/06 02:55:13;;;;;;;1999.90;999.90;;;10.50;99.90;;;;;;5039299;28;20104;-72
2023/10/06 02:57:41;;;;;;;1999.90;999.90;;;10.50;99.90;;;;;;5039594;28;20569;-78
2023/10/06 03:02:56;;;;;;;1999.90;999.90;;;10.30;99.90;;;;;;5059112;28;20029;-72
2023/10/06 03:05:31;;;;;;;1999.90;999.90;;;10.20;99.90;;;;;;5059120;28;20080;-71
2023/10/06 03:07:58;;;;;;;1999.90;999.90;;;10.20;99.90;;;;;;5059356;28;20036;-78
2023/10/06 03:10:27;;;;;;;1999.90;999.90;;;10.10;99.90;;;;;;5059096;28;20107;-78
2023/10/06 03:12:57;;;;;;;1999.90;999.90;;;10.10;99.90;;;;;;5058977;28;20017;-78
2023/10/06 03:15:34;;;;;;;1999.90;999.90;;;10.10;99.90;;;;;;5059162;28;20021;-78
2023/10/06 03:17:59;;;;;;;1999.90;999.90;;;10.10;99.90;;;;;;5059101;28;20025;-72
2023/10/06 03:20:29;;;;;;;1999.90;999.90;;;10.10;99.90;;;;;;5059095;28;20021;-72
2023/10/06 03:22:55;;;;;;;1999.90;999.90;;;10.10;99.90;;;;;;5059101;28;20024;-71
2023/10/06 03:25:22;;;;;;;1999.90;999.90;;;10.10;99.90;;;;;;5058596;28;20541;-78
2023/10/06 03:27:53;;;;;;;1999.90;999.90;;;10.10;99.90;;;;;;5043334;28;20033;-78
2023/10/06 03:30:26;;;;;;;1999.90;999.90;;;10.00;99.90;;;;;;5045101;28;20025;-78
2023/10/06 03:32:53;;;;;;;1999.90;999.90;;;10.00;99.90;;;;;;5059251;28;20021;-71
2023/10/06 03:35:35;;;;;;;1999.90;999.90;;;10.00;99.90;;;;;;5040674;28;20013;-71
2023/10/06 03:38:08;;;;;;;1999.90;999.90;;;9.90;99.90;;;;;;5039131;28;20030;-78
2023/10/06 03:40:58;;;;;;;1999.90;999.90;;;9.90;99.90;;;;;;5038634;28;20261;-78
2023/10/06 03:46:12;;;;;;;1999.90;999.90;;;9.90;99.90;;;;;;5058987;28;20086;-78
2023/10/06 03:48:38;;;;;;;1999.90;999.90;;;9.90;99.90;;;;;;5055926;28;20104;-78
2023/10/06 03:51:05;;;;;;;1999.90;999.90;;;9.90;99.90;;;;;;5055592;28;20070;-78
2023/10/06 03:53:31;;;;;;;1999.90;999.90;;;9.80;99.90;;;;;;5052959;28;20096;-78
2023/10/06 03:55:58;;;;;;;1999.90;999.90;;;9.90;99.90;;;;;;5036006;28;20471;-71
2023/10/06 03:58:31;;;;;;;1999.90;999.90;;;9.90;99.90;;;;;;5035408;28;20113;-74
2023/10/06 04:00:58;;;;;;;1999.90;999.90;;;9.90;99.90;;;;;;5048511;28;20033;-78
2023/10/06 04:03:23;;;;;;;1999.90;999.90;;;10.00;99.90;;;;;;5055526;28;20498;-78
2023/10/06 04:05:50;;;;;;;1999.90;999.90;;;10.00;99.90;;;;;;5054586;28;20029;-78
2023/10/06 04:08:20;;;;;;;1999.90;999.90;;;9.90;99.90;;;;;;5055155;28;20029;-71
2023/10/06 04:10:48;;;;;;;1999.90;999.90;;;9.90;99.90;;;;;;5055066;28;20027;-71
2023/10/06 04:13:17;;;;;;;1999.90;999.90;;;9.90;99.90;;;;;;5055160;28;20029;-78
2023/10/06 04:15:43;;;;;;;1999.90;999.90;;;9.90;99.90;;;;;;5055172;28;20067;-77
2023/10/06 04:18:10;;;;;;;1999.90;999.90;;;10.00;99.90;;;;;;5054885;28;20017;-78
2023/10/06 04:20:40;;;;;;;1999.90;999.90;;;10.00;99.90;;;;;;5054851;28;20107;-78
2023/10/06 04:23:07;;;;;;;1999.90;999.90;;;10.00;99.90;;;;;;5054953;28;20017;-71
2023/10/06 04:25:39;;;;;;;1999.90;999.90;;;10.00;99.90;;;;;;5050942;28;20124;-72
2023/10/06 04:28:09;;;;;;;1999.90;999.90;;;10.00;99.90;;;;;;5051861;28;20036;-78
2023/10/06 04:30:38;;;;;;;1999.90;999.90;;;10.00;99.90;;;;;;5046580;28;20021;-71
2023/10/06 04:33:05;;;;;;;1999.90;999.90;;;10.00;99.90;;;;;;5034994;28;20155;-78
2023/10/06 04:35:34;;;;;;;1999.90;999.90;;;9.90;99.90;;;;;;5035897;28;20116;-71
2023/10/06 04:38:05;;;;;;;1999.90;999.90;;;9.90;99.90;;;;;;5054787;28;20025;-79
2023/10/06 04:40:32;;;;;;;1999.90;999.90;;;9.90;99.90;;;;;;5034588;28;20022;-78
2023/10/06 04:42:59;;;;;;;1999.90;999.90;;;9.80;99.90;;;;;;5051204;28;20032;-78
2023/10/06 04:45:25;;;;;;;1999.90;999.90;;;9.80;99.90;;;;;;5052812;28;20017;-78
2023/10/06 04:47:55;;;;;;;1999.90;999.90;;;9.80;99.90;;;;;;5053335;28;20412;-71
2023/10/06 04:50:21;;;;;;;1999.90;999.90;;;9.80;99.90;;;;;;5053945;28;20718;-71
2023/10/06 04:52:47;;;;;;;1999.90;999.90;;;9.70;99.90;;;;;;5054018;28;20037;-78
2023/10/06 04:55:13;;;;;;;1999.90;999.90;;;9.70;99.90;;;;;;5054199;28;20495;-78
2023/10/06 04:57:42;;;;;;;1999.90;999.90;;;9.70;99.90;;;;;;5051482;28;20372;-71
2023/10/06 05:00:19;;;;;;;1999.90;999.90;;;9.60;99.90;;;;;;5052894;28;20052;-72
2023/10/06 05:02:47;;;;;;;1999.90;999.90;;;9.60;99.90;;;;;;5054251;28;20510;-71
2023/10/06 05:05:14;;;;;;;1999.90;999.90;;;9.50;99.90;;;;;;5054121;28;20569;-71
2023/10/06 05:07:39;;;;;;;1999.90;999.90;;;9.50;99.90;;;;;;5053878;28;20036;-77
2023/10/06 05:10:10;;;;;;;1999.90;999.90;;;9.50;99.90;;;;;;5054058;28;20029;-78
2023/10/06 05:12:42;;;;;;;1999.90;999.90;;;9.50;99.90;;;;;;5053843;28;20510;-78
2023/10/06 05:15:08;;;;;;;1999.90;999.90;;;9.40;99.90;;;;;;5053726;28;20430;-79
2023/10/06 05:17:34;;;;;;;1999.90;999.90;;;9.40;99.90;;;;;;5054127;28;20013;-71
2023/10/06 05:20:04;;;;;;;1999.90;999.90;;;9.40;99.90;;;;;;5053871;28;20043;-78
2023/10/06 05:22:31;;;;;;;1999.90;999.90;;;9.30;99.90;;;;;;5054012;28;20029;-78
2023/10/06 05:24:59;;;;;;;1999.90;999.90;;;9.30;99.90;;;;;;5053396;28;20063;-71
2023/10/06 05:27:25;;;;;;;1999.90;999.90;;;9.20;99.90;;;;;;5045953;28;20370;-78
2023/10/06 05:29:51;;;;;;;1999.90;999.90;;;9.20;99.90;;;;;;5048376;28;20083;-71
2023/10/06 05:32:17;;;;;;;1999.90;999.90;;;9.10;99.90;;;;;;5052675;28;20384;-78
2023/10/06 05:34:43;;;;;;;1999.90;999.90;;;9.10;99.90;;;;;;5045839;28;20081;-71
2023/10/06 05:37:09;;;;;;;1999.90;999.90;;;9.10;99.90;;;;;;5040386;28;20041;-78
2023/10/06 05:39:35;;;;;;;1999.90;999.90;;;9.10;99.90;;;;;;5033678;28;20034;-71
2023/10/06 05:42:04;;;;;;;1999.90;999.90;;;9.10;99.90;;;;;;5032931;28;20027;-72
2023/10/06 05:44:30;;;;;;;1999.90;999.90;;;9.10;99.90;;;;;;5031717;28;20037;-78
2023/10/06 05:46:56;;;;;;;1999.90;999.90;;;9.10;99.90;;;;;;5034652;28;20491;-76
2023/10/06 05:49:22;;;;;;;1999.90;999.90;;;9.10;99.90;;;;;;5055275;28;20506;-77
2023/10/06 05:51:49;;;;;;;1999.90;999.90;;;9.10;99.90;;;;;;5039557;28;20108;-71
2023/10/06 05:54:26;;;;;;;1999.90;999.90;;;9.00;99.90;;;;;;5043910;28;20037;-78
2023/10/06 05:56:53;;;;;;;1999.90;999.90;;;9.00;99.90;;;;;;5052838;28;20028;-78
2023/10/06 05:59:22;;;;;;;1999.90;999.90;;;9.00;99.90;;;;;;5052492;28;20079;-72
2023/10/06 06:01:56;;;;;;;1999.90;999.90;;;9.00;99.90;;;;;;5052730;28;20025;-78
2023/10/06 06:04:27;;;;;;;1999.90;999.90;;;9.10;99.90;;;;;;5052458;28;20041;-78
2023/10/06 06:07:02;;;;;;;1999.90;999.90;;;9.10;99.90;;;;;;5050698;28;20029;-72
2023/10/06 06:09:30;;;;;;;1999.90;999.90;;;9.10;99.90;;;;;;5045517;28;20029;-71
2023/10/06 06:11:58;;;;;;;1999.90;999.90;;;9.10;99.90;;;;;;5041355;28;20104;-78
2023/10/06 06:14:24;;;;;;;1999.90;999.90;;;9.10;99.90;;;;;;5047581;28;20029;-71
2023/10/06 06:16:50;;;;;;;1999.90;999.90;;;9.10;99.90;;;;;;5048572;28;20025;-78
2023/10/06 06:19:17;;;;;;;1999.90;999.90;;;9.10;99.90;;;;;;5047804;28;20503;-71
2023/10/06 06:21:44;;;;;;;1999.90;999.90;;;9.10;99.90;;;;;;5038628;28;20039;-72
2023/10/06 06:24:10;;;;;;;1999.90;999.90;;;9.10;99.90;;;;;;5044948;28;20021;-71
2023/10/06 06:26:36;;;;;;;1999.90;999.90;;;9.10;99.90;;;;;;5041995;28;20057;-78
2023/10/06 06:29:08;;;;;;;1999.90;999.90;;;9.10;99.90;;;;;;5038778;28;20090;-71
2023/10/06 06:31:34;;;;;;;1999.90;999.90;;;9.10;99.90;;;;;;5030493;28;20033;-78
2023/10/06 06:34:04;;;;;;;1999.90;999.90;;;9.10;99.90;;;;;;5028802;28;20124;-78
2023/10/06 06:36:33;;;;;;;1999.90;999.90;;;9.10;99.90;;;;;;5029263;28;20196;-75
2023/10/06 06:38:59;;;;;;;1999.90;999.90;;;9.00;99.90;;;;;;5029696;28;20041;-78
2023/10/06 06:41:25;;;;;;;1999.90;999.90;;;9.10;99.90;;;;;;5036557;28;20041;-78
2023/10/06 06:43:58;;;;;;;1999.90;999.90;;;9.10;99.90;;;;;;5039502;28;20096;-72
2023/10/06 06:46:24;;;;;;;1999.90;999.90;;;9.10;99.90;;;;;;5035573;28;20044;-72
2023/10/06 06:48:50;;;;;;;1999.90;999.90;;;9.20;99.90;;;;;;5032761;28;20146;-78
2023/10/06 06:51:15;;;;;;;1999.90;999.90;;;9.20;99.90;;;;;;5028553;28;20868;-72
2023/10/06 06:53:41;;;;;;;1999.90;999.90;;;9.30;99.90;;;;;;5033934;28;20030;-78
2023/10/06 06:56:10;;;;;;;1999.90;999.90;;;9.40;99.90;;;;;;5031285;28;20029;-74
2023/10/06 06:58:37;;;;;;;1999.90;999.90;;;9.40;99.90;;;;;;5030599;28;20120;-71
2023/10/06 07:01:05;;;;;;;1999.90;999.90;;;9.50;99.90;;;;;;5040720;28;20627;-72
2023/10/06 07:03:31;;;;;;;1999.90;999.90;;;9.60;99.90;;;;;;5037203;28;20045;-76
2023/10/06 07:05:57;;;;;;;1999.90;999.90;;;9.70;99.90;;;;;;5036374;28;20555;-78
2023/10/06 07:08:24;;;;;;;1999.90;999.90;;;9.80;99.90;;;;;;5030662;28;20791;-76
2023/10/06 07:10:53;;;;;;;1999.90;999.90;;;9.80;99.90;;;;;;5031894;28;20033;-71
2023/10/06 07:13:22;;;;;;;1999.90;999.90;;;9.90;99.90;;;;;;5030715;28;20033;-71
2023/10/06 07:15:49;;;;;;;1999.90;999.90;;;10.00;99.90;;;;;;5037403;28;20480;-77
2023/10/06 07:18:15;;;;;;;1999.90;999.90;;;10.10;99.90;;;;;;5030680;28;20036;-73
2023/10/06 07:20:40;;;;;;;1999.90;999.90;;;10.20;99.90;;;;;;5032864;28;20033;-77
2023/10/06 07:23:06;;;;;;;1999.90;999.90;;;10.30;99.90;;;;;;5038211;28;20029;-71
2023/10/06 07:25:32;;;;;;;1999.90;999.90;;;10.50;99.90;;;;;;5042317;28;20087;-72
2023/10/06 07:27:59;;;;;;;1999.90;999.90;;;10.70;99.90;;;;;;5032706;28;20034;-75
2023/10/06 07:30:29;;;;;;;1999.90;999.90;;;10.90;99.90;;;;;;5034554;28;21739;-76
2023/10/06 07:32:55;;;;;;;1999.90;999.90;;;11.00;99.90;;;;;;5037861;28;21944;-75
2023/10/06 07:35:43;;;;;;;1999.90;999.90;;;11.20;99.90;;;;;;5039550;28;20086;-71
2023/10/06 07:38:10;;;;;;;1999.90;999.90;;;11.50;99.90;;;;;;5033271;28;21453;-71
2023/10/06 07:40:37;;;;;;;1999.90;999.90;;;11.70;99.90;;;;;;5043909;28;20065;-77
2023/10/06 07:43:05;;;;;;;1999.90;999.90;;;11.90;99.90;;;;;;5037566;28;20029;-75
2023/10/06 07:45:31;;;;;;;1999.90;999.90;;;12.10;99.90;;;;;;5038413;28;20045;-76
2023/10/06 07:47:57;;;;;;;1999.90;999.90;;;12.20;99.90;;;;;;5038376;28;20037;-78
2023/10/06 07:50:26;;;;;;;1999.90;999.90;;;12.30;99.90;;;;;;5037770;28;20041;-72
2023/10/06 07:52:52;;;;;;;1999.90;999.90;;;12.30;99.90;;;;;;5032160;28;20033;-71
2023/10/06 07:55:21;;;;;;;1999.90;999.90;;;12.40;99.90;;;;;;5039843;28;20060;-78
2023/10/06 07:57:48;;;;;;;1999.90;999.90;;;12.50;99.90;;;;;;5038383;28;20025;-77
2023/10/06 08:00:26;;;;;;;1999.90;999.90;;;12.60;99.90;;;;;;5032749;28;20538;-77
2023/10/06 08:02:52;;;;;;;1999.90;999.90;;;12.80;99.90;;;;;;5035920;28;20515;-71
2023/10/06 08:05:19;;;;;;;1999.90;999.90;;;13.10;99.90;;;;;;5038385;28;20021;-72
2023/10/06 08:07:44;;;;;;;1999.90;999.90;;;14.00;99.90;;;;;;5032828;28;20499;-79
2023/10/06 08:10:14;;;;;;;1999.90;999.90;;;15.00;99.90;;;;;;5034228;28;20033;-77
2023/10/06 08:13:01;;;;;;;1999.90;999.90;;;15.60;99.90;;;;;;5037582;28;20583;-77
2023/10/06 08:15:27;;;;;;;1999.90;999.90;;;16.40;99.90;;;;;;5038634;28;20024;-72
2023/10/06 08:17:53;;;;;;;1999.90;999.90;;;16.60;99.90;;;;;;5032796;28;20070;-72
2023/10/06 08:20:20;;;;;;;1999.90;999.90;;;16.70;99.90;;;;;;5040978;28;20554;-78
2023/10/06 08:22:47;;;;;;;1999.90;999.90;;;17.60;99.90;;;;;;5035898;28;20033;-78
2023/10/06 08:25:13;;;;;;;1999.90;999.90;;;19.30;99.90;;;;;;5037657;28;20049;-78
2023/10/06 08:27:43;;;;;;;1999.90;999.90;;;20.40;99.90;;;;;;5041397;28;20029;-78
2023/10/06 08:30:16;;;;;;;1999.90;999.90;;;19.50;99.90;;;;;;5034116;28;20026;-73
2023/10/06 08:32:46;;;;;;;1999.90;999.90;;;19.30;99.90;;;;;;5038965;28;20037;-72
2023/10/06 08:35:15;;;;;;;1999.90;999.90;;;20.70;99.90;;;;;;5040629;28;20151;-78
2023/10/06 08:37:42;;;;;;;1999.90;999.90;;;21.50;99.90;;;;;;5030606;28;20056;-72
2023/10/06 08:40:16;;;;;;;1999.90;999.90;;;22.90;99.90;;;;;;5034887;28;20386;-74
2023/10/06 08:42:45;;;;;;;1999.90;999.90;;;24.00;99.90;;;;;;5032212;28;20053;-71
2023/10/06 08:45:14;;;;;;;1999.90;999.90;;;24.50;99.90;;;;;;5032985;28;20041;-76
2023/10/06 08:47:40;;;;;;;1999.90;999.90;;;25.20;99.90;;;;;;5035997;28;20071;-75
2023/10/06 08:50:06;;;;;;;1999.90;999.90;;;25.70;99.90;;;;;;5035750;28;20491;-73
2023/10/06 08:52:32;;;;;;;1999.90;999.90;;;26.10;99.90;;;;;;5036033;28;20147;-76
2023/10/06 08:54:59;;;;;;;1999.90;999.90;;;26.50;99.90;;;;;;5038400;28;20461;-71
2023/10/06 08:57:28;;;;;;;1999.90;999.90;;;26.60;99.80;;;;;;5037625;28;20025;-71
2023/10/06 08:59:56;;;;;;;1999.90;999.90;;;26.70;99.10;;;;;;5036867;28;20069;-75
2023/10/06 09:02:25;;;;;;;1999.90;999.90;;;27.90;99.00;;;;;;5039092;28;20466;-75
2023/10/06 09:04:54;;;;;;;1999.90;999.90;;;28.00;97.80;;;;;;5035944;28;20144;-73
2023/10/06 09:07:21;;;;;;;1999.90;999.90;;;28.90;96.30;;;;;;5036194;28;20099;-71
2023/10/06 09:09:47;;;;;;;1999.90;999.90;;;28.50;96.60;;;;;;5030009;28;20040;-71
2023/10/06 09:12:23;;;;;;;1999.90;999.90;;;28.70;96.00;;;;;;5038617;28;20033;-77
2023/10/06 09:14:54;;;;;;;1999.90;999.90;;;29.10;95.90;;;;;;5037797;28;20221;-71
2023/10/06 09:17:33;;;;;;;1999.90;999.90;;;28.90;95.60;;;;;;5039150;28;20030;-77
2023/10/06 09:19:59;;;;;;;1999.90;999.90;;;28.40;95.50;;;;;;5037083;28;20060;-71
2023/10/06 09:22:29;;;;;;;1999.90;999.90;;;26.70;97.10;;;;;;5031814;28;20029;-71
2023/10/06 09:25:04;;;;;;;1999.90;999.90;;;24.70;99.90;;;;;;5034633;28;20534;-76
2023/10/06 09:27:31;;;;;;;1999.90;999.90;;;23.20;99.90;;;;;;5035215;28;20431;-76
2023/10/06 09:30:02;;;;;;;1999.90;999.90;;;22.10;99.90;;;;;;5038278;28;20037;-76
2023/10/06 09:32:28;;;;;;;1999.90;999.90;;;21.60;99.90;;;;;;5041573;28;20029;-76
2023/10/06 09:34:57;;;;;;;1999.90;999.90;;;21.50;99.90;;;;;;5037817;28;20492;-78
2023/10/06 09:37:24;;;;;;;1999.90;999.90;;;21.10;99.90;;;;;;5031136;28;20692;-77
2023/10/06 09:40:15;;;;;;;1999.90;999.90;;;21.00;99.90;;;;;;5027443;28;20399;-77
2023/10/06 09:42:43;;;;;;;1999.90;999.90;;;20.80;99.90;;;;;;5035315;28;20112;-78
2023/10/06 09:45:15;;;;;;;1999.90;999.90;;;20.90;99.90;;;;;;5040680;28;20723;-77
2023/10/06 09:47:59;;;;;;;1999.90;999.90;;;21.00;99.90;;;;;;5035202;28;20036;-70
2023/10/06 09:50:26;;;;;;;1999.90;999.90;;;20.80;99.90;;;;;;5033632;28;20039;-74
2023/10/06 09:52:52;;;;;;;1999.90;999.90;;;20.80;99.90;;;;;;5037703;28;20071;-71
2023/10/06 09:55:20;;;;;;;1999.90;999.90;;;20.60;99.90;;;;;;5036314;28;20064;-76
2023/10/06 09:57:47;;;;;;;1999.90;999.90;;;20.70;99.90;;;;;;5031127;28;20036;-74
2023/10/06 10:00:16;;;;;;;1999.90;999.90;;;20.80;99.90;;;;;;5038036;28;20032;-70
2023/10/06 10:02:50;;;;;;;1999.90;999.90;;;20.90;99.90;;;;;;5025519;28;20033;-70
2023/10/06 10:05:20;;;;;;;1999.90;999.90;;;21.00;99.90;;;;;;5034877;28;20032;-70
2023/10/06 10:07:49;;;;;;;1999.90;999.90;;;21.10;99.90;;;;;;5032866;28;20044;-75
2023/10/06 10:10:22;;;;;;;1999.90;999.90;;;21.30;99.90;;;;;;5034973;28;20037;-76
2023/10/06 10:13:07;;;;;;;1999.90;999.90;;;21.20;99.90;;;;;;5035994;28;20400;-70
2023/10/06 10:15:59;;;;;;;1999.90;999.90;;;21.00;99.90;;;;;;5041992;28;20029;-70
2023/10/06 10:18:39;;;;;;;1999.90;999.90;;;21.10;99.90;;;;;;5032877;28;20033;-73
2023/10/06 10:21:11;;;;;;;1999.90;999.90;;;21.10;99.90;;;;;;5034935;28;20419;-70
2023/10/06 10:23:40;;;;;;;1999.90;999.90;;;21.10;99.90;;;;;;5040059;28;20048;-74
2023/10/06 10:26:22;;;;;;;1999.90;999.90;;;21.20;99.90;;;;;;5042217;28;20931;-71
2023/10/06 10:29:12;;;;;;;1999.90;999.90;;;21.10;99.90;;;;;;5034883;28;20159;-75
2023/10/06 10:31:51;;;;;;;1999.90;999.90;;;21.10;99.90;;;;;;5034793;28;20099;-76
2023/10/06 10:34:21;;;;;;;1999.90;999.90;;;21.20;99.90;;;;;;5034685;28;20025;-74
2023/10/06 10:37:12;;;;;;;1999.90;999.90;;;21.20;99.90;;;;;;5033968;28;20547;-73
2023/10/06 10:39:51;;;;;;;1999.90;999.90;;;21.30;99.90;;;;;;5018732;28;20095;-71
2023/10/06 10:42:21;;;;;;;1999.90;999.90;;;21.40;99.90;;;;;;5029551;28;20160;-76
2023/10/06 10:44:48;;;;;;;1999.90;999.90;;;21.60;99.90;;;;;;5041621;28;20036;-71
2023/10/06 10:47:15;;;;;;;1999.90;999.90;;;21.50;99.90;;;;;;5034154;28;20118;-76
2023/10/06 10:49:41;;;;;;;1999.90;999.90;;;21.70;99.90;;;;;;5036130;28;21399;-75
2023/10/06 10:52:09;;;;;;;1999.90;999.90;;;21.70;99.90;;;;;;5036883;28;20172;-70
2023/10/06 10:54:39;;;;;;;1999.90;999.90;;;21.90;99.90;;;;;;5031244;28;20025;-70
2023/10/06 10:57:18;;;;;;;1999.90;999.90;;;21.90;99.90;;;;;;5035790;28;20029;-72
2023/10/06 11:00:24;;;;;;;1999.90;999.90;;;21.80;99.90;;;;;;5039852;28;20034;-76
2023/10/06 11:02:51;;;;;;;1999.90;999.90;;;21.90;99.90;;;;;;5036946;28;20456;-76
2023/10/06 11:05:21;;;;;;;1999.90;999.90;;;22.10;99.90;;;;;;5038350;28;20411;-70
2023/10/06 11:08:03;;;;;;;1999.90;999.90;;;22.20;99.90;;;;;;5039177;28;20457;-71
2023/10/06 11:10:29;;;;;;;1999.90;999.90;;;22.40;99.90;;;;;;5036155;28;20527;-75
2023/10/06 11:13:20;;;;;;;1999.90;999.90;;;22.40;99.90;;;;;;5037599;28;21388;-76
2023/10/06 11:15:49;;;;;;;1999.90;999.90;;;22.50;99.90;;;;;;5039844;28;20458;-76
2023/10/06 11:18:17;;;;;;;1999.90;999.90;;;22.60;99.90;;;;;;5034920;28;20404;-70
2023/10/06 11:20:45;;;;;;;1999.90;999.90;;;22.60;99.90;;;;;;5037497;28;20029;-70
2023/10/06 11:23:11;;;;;;;1999.90;999.90;;;22.70;99.90;;;;;;5036509;28;20091;-74
2023/10/06 11:25:47;;;;;;;1999.90;999.90;;;22.70;99.90;;;;;;5040526;28;20432;-76
2023/10/06 11:28:12;;;;;;;1999.90;999.90;;;22.70;99.90;;;;;;5031920;28;20041;-73
2023/10/06 11:30:40;;;;;;;1999.90;999.90;;;22.90;99.90;;;;;;5040942;28;20033;-70
2023/10/06 11:33:08;;;;;;;1999.90;999.90;;;23.00;99.90;;;;;;5034076;28;20028;-70
2023/10/06 11:35:35;;;;;;;1999.90;999.90;;;22.90;99.90;;;;;;5034359;28;20017;-76
2023/10/06 11:38:11;;;;;;;1999.90;999.90;;;22.70;99.90;;;;;;5029293;28;20038;-76
2023/10/06 11:40:36;;;;;;;1999.90;999.90;;;22.90;99.90;;;;;;5037384;28;20052;-76
2023/10/06 11:43:12;;;;;;;1999.90;999.90;;;23.20;99.90;;;;;;5036934;28;20166;-74
2023/10/06 11:45:38;;;;;;;1999.90;999.90;;;23.30;99.90;;;;;;5035985;28;20400;-76
2023/10/06 11:48:05;;;;;;;1999.90;999.90;;;23.30;99.90;;;;;;5035200;28;20570;-75
2023/10/06 11:50:34;;;;;;;1999.90;999.90;;;23.20;99.90;;;;;;5034601;28;20041;-74
2023/10/06 11:53:01;;;;;;;1999.90;999.90;;;23.40;99.90;;;;;;5041786;28;20024;-77
2023/10/06 11:55:33;;;;;;;1999.90;999.90;;;23.50;99.90;;;;;;5033471;28;20029;-78
2023/10/06 11:58:01;;;;;;;1999.90;999.90;;;23.50;99.60;;;;;;5035876;28;20459;-78
2023/10/06 12:00:35;;;;;;;1999.90;999.90;;;23.60;99.90;;;;;;5035552;28;20108;-77
2023/10/06 12:03:01;;;;;;;1999.90;999.90;;;23.80;99.90;;;;;;5037873;28;20107;-77
2023/10/06 12:05:26;;;;;;;1999.90;999.90;;;23.80;99.40;;;;;;5036513;28;20037;-74
2023/10/06 12:07:52;;;;;;;1999.90;999.90;;;23.70;97.40;;;;;;5034684;28;20120;-74
2023/10/06 12:10:20;;;;;;;1999.90;999.90;;;23.80;97.40;;;;;;5038317;28;20057;-70
2023/10/06 12:12:47;;;;;;;1999.90;999.90;;;24.10;98.30;;;;;;5041047;28;20024;-75
2023/10/06 12:15:14;;;;;;;1999.90;999.90;;;24.10;97.60;;;;;;5033249;28;20073;-76
2023/10/06 12:17:40;;;;;;;1999.90;999.90;;;24.20;97.60;;;;;;5035235;28;20809;-77
2023/10/06 12:20:13;;;;;;;1999.90;999.90;;;24.40;97.80;;;;;;5032748;28;20041;-76
2023/10/06 12:22:39;;;;;;;1999.90;999.90;;;24.30;96.90;;;;;;5038046;28;20103;-70
2023/10/06 12:25:05;;;;;;;1999.90;999.90;;;24.40;97.10;;;;;;5034636;28;20148;-71
2023/10/06 12:27:31;;;;;;;1999.90;999.90;;;24.60;96.20;;;;;;5036069;28;20120;-76